sensor_id;sensor_type;location;lat;lon;timestamp;temperature;humidity
4187;DHT22;2107;52.306;10.484;2023-04-06T00:00:23;-0.20;99.90
4187;DHT22;2107;52.306;10.484;2023-04-06T00:02:50;-0.30;99.90
4187;DHT22;2107;52.306;10.484;2023-04-06T00:05:18;-0.50;99.90
4187;DHT22;2107;52.306;10.484;2023-04-06T00:07:45;-0.60;99.90
4187;DHT22;2107;52.306;10.484;2023-04-06T00:10:12;-0.70;99.90
4187;DHT22;2107;52.306;10.484;2023-04-06T00:12:39;-0.80;99.90
4187;DHT22;2107;52.306;10.484;2023-04-06T00:15:06;-0.90;99.90
4187;DHT22;2107;52.306;10.484;2023-04-06T00:17:35;-0.80;99.90
4187;DHT22;2107;52.306;10.484;2023-04-06T00:20:02;-0.40;99.90
4187;DHT22;2107;52.306;10.484;2023-04-06T00:22:29;-0.30;99.90
4187;DHT22;2107;52.306;10.484;2023-04-06T00:24:56;-0.40;99.90
4187;DHT22;2107;52.306;10.484;2023-04-06T00:27:23;-0.30;99.90
4187;DHT22;2107;52.306;10.484;2023-04-06T00:29:50;-0.30;99.90
4187;DHT22;2107;52.306;10.484;2023-04-06T00:32:17;-0.20;99.90
4187;DHT22;2107;52.306;10.484;2023-04-06T00:34:45;-0.20;99.90
4187;DHT22;2107;52.306;10.484;2023-04-06T00:37:12;-0.30;99.90
4187;DHT22;2107;52.306;10.484;2023-04-06T00:39:39;-0.30;99.90
4187;DHT22;2107;52.306;10.484;2023-04-06T00:42:10;-0.40;99.90
4187;DHT22;2107;52.306;10.484;2023-04-06T00:44:38;-0.60;99.90
4187;DHT22;2107;52.306;10.484;2023-04-06T00:47:05;-0.70;99.90
4187;DHT22;2107;52.306;10.484;2023-04-06T00:49:32;-0.70;99.90
4187;DHT22;2107;52.306;10.484;2023-04-06T00:52:01;-0.90;99.90
4187;DHT22;2107;52.306;10.484;2023-04-06T00:54:28;-1.10;99.90
4187;DHT22;2107;52.306;10.484;2023-04-06T00:56:55;-1.10;99.90
4187;DHT22;2107;52.306;10.484;2023-04-06T00:59:23;-1.00;99.90
4187;DHT22;2107;52.306;10.484;2023-04-06T01:01:49;-0.90;99.90
4187;DHT22;2107;52.306;10.484;2023-04-06T01:04:16;-0.90;99.90
4187;DHT22;2107;52.306;10.484;2023-04-06T01:06:43;-1.00;99.90
4187;DHT22;2107;52.306;10.484;2023-04-06T01:09:12;-1.10;99.90
4187;DHT22;2107;52.306;10.484;2023-04-06T01:11:39;-1.10;99.90
4187;DHT22;2107;52.306;10.484;2023-04-06T01:14:06;-1.20;99.90
4187;DHT22;2107;52.306;10.484;2023-04-06T01:16:33;-1.30;99.90
4187;DHT22;2107;52.306;10.484;2023-04-06T01:19:00;-1.30;99.90
4187;DHT22;2107;52.306;10.484;2023-04-06T01:21:27;-1.30;99.90
4187;DHT22;2107;52.306;10.484;2023-04-06T01:23:55;-1.30;99.90
4187;DHT22;2107;52.306;10.484;2023-04-06T01:26:22;-1.40;99.90
4187;DHT22;2107;52.306;10.484;2023-04-06T01:28:49;-1.50;99.90
4187;DHT22;2107;52.306;10.484;2023-04-06T01:31:16;-1.60;99.90
4187;DHT22;2107;52.306;10.484;2023-04-06T01:33:43;-1.70;99.90
4187;DHT22;2107;52.306;10.484;2023-04-06T01:36:10;-1.80;99.90
4187;DHT22;2107;52.306;10.484;2023-04-06T01:38:37;-1.80;99.90
4187;DHT22;2107;52.306;10.484;2023-04-06T01:41:06;-1.90;99.90
4187;DHT22;2107;52.306;10.484;2023-04-06T01:43:33;-1.90;99.90
4187;DHT22;2107;52.306;10.484;2023-04-06T01:46:00;-1.80;99.90
4187;DHT22;2107;52.306;10.484;2023-04-06T01:48:27;-1.80;99.90
4187;DHT22;2107;52.306;10.484;2023-04-06T01:50:55;-1.90;99.90
4187;DHT22;2107;52.306;10.484;2023-04-06T01:53:22;-1.90;99.90
4187;DHT22;2107;52.306;10.484;2023-04-06T01:55:49;-1.90;99.90
4187;DHT22;2107;52.306;10.484;2023-04-06T01:58:17;-2.00;99.90
4187;DHT22;2107;52.306;10.484;2023-04-06T02:00:44;-2.10;99.90
4187;DHT22;2107;52.306;10.484;2023-04-06T02:03:11;-2.10;99.90
4187;DHT22;2107;52.306;10.484;2023-04-06T02:05:39;-2.20;99.90
4187;DHT22;2107;52.306;10.484;2023-04-06T02:08:06;-2.10;99.90
4187;DHT22;2107;52.306;10.484;2023-04-06T02:10:33;-2.00;99.90
4187;DHT22;2107;52.306;10.484;2023-04-06T02:13:00;-2.00;99.90
4187;DHT22;2107;52.306;10.484;2023-04-06T02:15:29;-2.00;99.90
4187;DHT22;2107;52.306;10.484;2023-04-06T02:17:58;-2.10;99.90
4187;DHT22;2107;52.306;10.484;2023-04-06T02:20:25;-2.30;99.90
4187;DHT22;2107;52.306;10.484;2023-04-06T02:22:52;-2.10;99.90
4187;DHT22;2107;52.306;10.484;2023-04-06T02:25:19;-2.10;99.90
4187;DHT22;2107;52.306;10.484;2023-04-06T02:27:46;-2.10;99.90
4187;DHT22;2107;52.306;10.484;2023-04-06T02:30:13;-1.90;99.90
4187;DHT22;2107;52.306;10.484;2023-04-06T02:32:42;-2.10;99.90
4187;DHT22;2107;52.306;10.484;2023-04-06T02:35:08;-2.20;99.90
4187;DHT22;2107;52.306;10.484;2023-04-06T02:37:35;-2.20;99.90
4187;DHT22;2107;52.306;10.484;2023-04-06T02:40:03;-2.30;99.90
4187;DHT22;2107;52.306;10.484;2023-04-06T02:42:31;-2.30;99.90
4187;DHT22;2107;52.306;10.484;2023-04-06T02:44:58;-2.20;99.90
4187;DHT22;2107;52.306;10.484;2023-04-06T02:47:25;-2.20;99.90
4187;DHT22;2107;52.306;10.484;2023-04-06T02:49:54;-2.30;99.90
4187;DHT22;2107;52.306;10.484;2023-04-06T02:52:21;-2.40;99.90
4187;DHT22;2107;52.306;10.484;2023-04-06T02:54:47;-2.50;99.90
4187;DHT22;2107;52.306;10.484;2023-04-06T02:57:16;-2.60;99.90
4187;DHT22;2107;52.306;10.484;2023-04-06T02:59:43;-2.60;99.90
4187;DHT22;2107;52.306;10.484;2023-04-06T03:02:10;-2.60;99.90
4187;DHT22;2107;52.306;10.484;2023-04-06T03:04:37;-2.40;99.90
4187;DHT22;2107;52.306;10.484;2023-04-06T03:07:05;-2.60;99.90
4187;DHT22;2107;52.306;10.484;2023-04-06T03:09:32;-2.70;99.90
4187;DHT22;2107;52.306;10.484;2023-04-06T03:11:59;-2.70;99.90
4187;DHT22;2107;52.306;10.484;2023-04-06T03:14:28;-2.70;99.90
4187;DHT22;2107;52.306;10.484;2023-04-06T03:16:55;-2.70;99.90
4187;DHT22;2107;52.306;10.484;2023-04-06T03:19:22;-2.70;99.90
4187;DHT22;2107;52.306;10.484;2023-04-06T03:21:49;-2.70;99.90
4187;DHT22;2107;52.306;10.484;2023-04-06T03:24:17;-2.70;99.90
4187;DHT22;2107;52.306;10.484;2023-04-06T03:26:44;-2.80;99.90
4187;DHT22;2107;52.306;10.484;2023-04-06T03:29:11;-2.80;99.90
4187;DHT22;2107;52.306;10.484;2023-04-06T03:31:38;-2.80;99.90
4187;DHT22;2107;52.306;10.484;2023-04-06T03:34:05;-2.80;99.90
4187;DHT22;2107;52.306;10.484;2023-04-06T03:36:33;-2.80;99.90
4187;DHT22;2107;52.306;10.484;2023-04-06T03:39:00;-2.70;99.90
4187;DHT22;2107;52.306;10.484;2023-04-06T03:41:29;-2.70;99.90
4187;DHT22;2107;52.306;10.484;2023-04-06T03:43:56;-2.70;99.90
4187;DHT22;2107;52.306;10.484;2023-04-06T03:46:23;-2.70;99.90
4187;DHT22;2107;52.306;10.484;2023-04-06T03:48:50;-2.70;99.90
4187;DHT22;2107;52.306;10.484;2023-04-06T03:51:17;-2.70;99.90
4187;DHT22;2107;52.306;10.484;2023-04-06T03:53:43;-2.50;99.90
4187;DHT22;2107;52.306;10.484;2023-04-06T03:56:10;-2.50;99.90
4187;DHT22;2107;52.306;10.484;2023-04-06T03:58:39;-2.50;99.90
4187;DHT22;2107;52.306;10.484;2023-04-06T04:01:05;-2.60;99.90
4187;DHT22;2107;52.306;10.484;2023-04-06T04:03:32;-2.50;99.90
4187;DHT22;2107;52.306;10.484;2023-04-06T04:05:59;-2.40;99.90
4187;DHT22;2107;52.306;10.484;2023-04-06T04:08:26;-2.20;99.90
4187;DHT22;2107;52.306;10.484;2023-04-06T04:10:53;-2.30;99.90
4187;DHT22;2107;52.306;10.484;2023-04-06T04:13:20;-2.20;99.90
4187;DHT22;2107;52.306;10.484;2023-04-06T04:15:48;-2.00;99.90
4187;DHT22;2107;52.306;10.484;2023-04-06T04:18:15;-1.80;99.90
4187;DHT22;2107;52.306;10.484;2023-04-06T04:20:42;-1.60;99.90
4187;DHT22;2107;52.306;10.484;2023-04-06T04:23:09;-1.50;99.90
4187;DHT22;2107;52.306;10.484;2023-04-06T04:25:36;-1.50;99.90
4187;DHT22;2107;52.306;10.484;2023-04-06T04:28:03;-1.50;99.90
4187;DHT22;2107;52.306;10.484;2023-04-06T04:30:30;-1.60;99.90
4187;DHT22;2107;52.306;10.484;2023-04-06T04:32:58;-1.70;99.90
4187;DHT22;2107;52.306;10.484;2023-04-06T04:35:26;-1.70;99.90
4187;DHT22;2107;52.306;10.484;2023-04-06T04:37:53;-1.50;99.90
4187;DHT22;2107;52.306;10.484;2023-04-06T04:40:20;-1.50;99.90
4187;DHT22;2107;52.306;10.484;2023-04-06T04:42:49;-1.50;99.90
4187;DHT22;2107;52.306;10.484;2023-04-06T04:45:16;-1.50;99.90
4187;DHT22;2107;52.306;10.484;2023-04-06T04:47:43;-1.60;99.90
4187;DHT22;2107;52.306;10.484;2023-04-06T04:50:11;-1.30;99.90
4187;DHT22;2107;52.306;10.484;2023-04-06T04:52:38;-1.30;99.90
4187;DHT22;2107;52.306;10.484;2023-04-06T04:55:06;-1.30;99.90
4187;DHT22;2107;52.306;10.484;2023-04-06T04:57:33;-1.10;99.90
4187;DHT22;2107;52.306;10.484;2023-04-06T04:59:59;-1.10;99.90
4187;DHT22;2107;52.306;10.484;2023-04-06T05:02:27;-1.00;99.90
4187;DHT22;2107;52.306;10.484;2023-04-06T05:04:54;-0.90;99.90
4187;DHT22;2107;52.306;10.484;2023-04-06T05:07:23;-0.70;99.90
4187;DHT22;2107;52.306;10.484;2023-04-06T05:09:50;-0.60;99.90
4187;DHT22;2107;52.306;10.484;2023-04-06T05:12:18;-0.50;99.90
4187;DHT22;2107;52.306;10.484;2023-04-06T05:14:45;-0.40;99.90
4187;DHT22;2107;52.306;10.484;2023-04-06T05:17:12;-0.30;99.90
4187;DHT22;2107;52.306;10.484;2023-04-06T05:19:39;-0.20;99.90
4187;DHT22;2107;52.306;10.484;2023-04-06T05:22:06;0.00;99.90
4187;DHT22;2107;52.306;10.484;2023-04-06T05:24:34;0.30;99.90
4187;DHT22;2107;52.306;10.484;2023-04-06T05:27:02;0.40;99.90
4187;DHT22;2107;52.306;10.484;2023-04-06T05:29:29;0.70;99.90
4187;DHT22;2107;52.306;10.484;2023-04-06T05:31:56;0.60;99.90
4187;DHT22;2107;52.306;10.484;2023-04-06T05:34:23;0.70;99.90
4187;DHT22;2107;52.306;10.484;2023-04-06T05:36:50;0.80;99.90
4187;DHT22;2107;52.306;10.484;2023-04-06T05:39:17;0.80;99.90
4187;DHT22;2107;52.306;10.484;2023-04-06T05:41:45;0.80;99.90
4187;DHT22;2107;52.306;10.484;2023-04-06T05:44:12;0.90;99.90
4187;DHT22;2107;52.306;10.484;2023-04-06T05:46:39;0.90;99.90
4187;DHT22;2107;52.306;10.484;2023-04-06T05:49:06;1.00;99.90
4187;DHT22;2107;52.306;10.484;2023-04-06T05:51:33;1.10;99.90
4187;DHT22;2107;52.306;10.484;2023-04-06T05:54:00;1.30;99.90
4187;DHT22;2107;52.306;10.484;2023-04-06T05:56:27;1.50;99.90
4187;DHT22;2107;52.306;10.484;2023-04-06T05:58:57;1.70;99.90
4187;DHT22;2107;52.306;10.484;2023-04-06T06:01:24;2.10;99.90
4187;DHT22;2107;52.306;10.484;2023-04-06T06:03:50;2.20;99.90
4187;DHT22;2107;52.306;10.484;2023-04-06T06:06:17;2.10;99.90
4187;DHT22;2107;52.306;10.484;2023-04-06T06:08:45;2.20;99.90
4187;DHT22;2107;52.306;10.484;2023-04-06T06:11:11;2.10;99.90
4187;DHT22;2107;52.306;10.484;2023-04-06T06:13:38;2.40;99.90
4187;DHT22;2107;52.306;10.484;2023-04-06T06:16:07;2.40;99.90
4187;DHT22;2107;52.306;10.484;2023-04-06T06:18:34;2.50;99.90
4187;DHT22;2107;52.306;10.484;2023-04-06T06:21:02;2.50;99.90
4187;DHT22;2107;52.306;10.484;2023-04-06T06:23:29;2.80;99.90
4187;DHT22;2107;52.306;10.484;2023-04-06T06:25:56;3.00;99.90
4187;DHT22;2107;52.306;10.484;2023-04-06T06:28:24;3.30;99.90
4187;DHT22;2107;52.306;10.484;2023-04-06T06:30:51;3.90;99.90
4187;DHT22;2107;52.306;10.484;2023-04-06T06:33:20;4.30;99.90
4187;DHT22;2107;52.306;10.484;2023-04-06T06:35:47;4.50;99.90
4187;DHT22;2107;52.306;10.484;2023-04-06T06:38:13;4.50;99.90
4187;DHT22;2107;52.306;10.484;2023-04-06T06:40:41;4.70;99.90
4187;DHT22;2107;52.306;10.484;2023-04-06T06:43:08;4.70;99.90
4187;DHT22;2107;52.306;10.484;2023-04-06T06:45:35;4.40;99.90
4187;DHT22;2107;52.306;10.484;2023-04-06T06:48:02;4.60;99.90
4187;DHT22;2107;52.306;10.484;2023-04-06T06:50:30;4.40;99.90
4187;DHT22;2107;52.306;10.484;2023-04-06T06:52:57;4.70;99.90
4187;DHT22;2107;52.306;10.484;2023-04-06T06:55:24;5.00;99.90
4187;DHT22;2107;52.306;10.484;2023-04-06T06:57:52;5.00;99.90
4187;DHT22;2107;52.306;10.484;2023-04-06T07:00:19;5.00;99.90
4187;DHT22;2107;52.306;10.484;2023-04-06T07:02:46;5.30;99.90
4187;DHT22;2107;52.306;10.484;2023-04-06T07:05:14;5.40;99.30
4187;DHT22;2107;52.306;10.484;2023-04-06T07:07:42;5.80;99.30
4187;DHT22;2107;52.306;10.484;2023-04-06T07:10:10;5.80;97.60
4187;DHT22;2107;52.306;10.484;2023-04-06T07:12:37;5.80;97.10
4187;DHT22;2107;52.306;10.484;2023-04-06T07:15:05;5.90;94.80
4187;DHT22;2107;52.306;10.484;2023-04-06T07:17:32;5.90;93.80
4187;DHT22;2107;52.306;10.484;2023-04-06T07:19:59;5.70;93.20
4187;DHT22;2107;52.306;10.484;2023-04-06T07:22:26;5.80;92.30
4187;DHT22;2107;52.306;10.484;2023-04-06T07:24:54;5.80;91.80
4187;DHT22;2107;52.306;10.484;2023-04-06T07:27:22;6.00;90.90
4187;DHT22;2107;52.306;10.484;2023-04-06T07:29:49;6.30;90.60
4187;DHT22;2107;52.306;10.484;2023-04-06T07:32:15;6.00;90.10
4187;DHT22;2107;52.306;10.484;2023-04-06T07:34:42;6.20;89.60
4187;DHT22;2107;52.306;10.484;2023-04-06T07:37:10;6.00;88.50
4187;DHT22;2107;52.306;10.484;2023-04-06T07:39:37;6.10;89.60
4187;DHT22;2107;52.306;10.484;2023-04-06T07:42:06;6.30;89.10
4187;DHT22;2107;52.306;10.484;2023-04-06T07:44:33;6.40;86.70
4187;DHT22;2107;52.306;10.484;2023-04-06T07:47:00;6.20;86.30
4187;DHT22;2107;52.306;10.484;2023-04-06T07:49:27;6.60;87.00
4187;DHT22;2107;52.306;10.484;2023-04-06T07:51:54;6.40;86.30
4187;DHT22;2107;52.306;10.484;2023-04-06T07:54:21;6.60;86.70
4187;DHT22;2107;52.306;10.484;2023-04-06T07:56:47;6.60;86.30
4187;DHT22;2107;52.306;10.484;2023-04-06T07:59:16;6.60;86.10
4187;DHT22;2107;52.306;10.484;2023-04-06T08:01:43;6.90;86.00
4187;DHT22;2107;52.306;10.484;2023-04-06T08:04:10;6.60;86.30
4187;DHT22;2107;52.306;10.484;2023-04-06T08:06:37;7.10;85.80
4187;DHT22;2107;52.306;10.484;2023-04-06T08:09:04;7.10;86.60
4187;DHT22;2107;52.306;10.484;2023-04-06T08:11:31;7.50;85.20
4187;DHT22;2107;52.306;10.484;2023-04-06T08:13:58;7.30;82.70
4187;DHT22;2107;52.306;10.484;2023-04-06T08:16:26;7.50;82.20
4187;DHT22;2107;52.306;10.484;2023-04-06T08:18:53;7.70;81.10
4187;DHT22;2107;52.306;10.484;2023-04-06T08:21:20;7.70;78.10
4187;DHT22;2107;52.306;10.484;2023-04-06T08:23:47;8.00;79.10
4187;DHT22;2107;52.306;10.484;2023-04-06T08:26:14;7.80;77.40
4187;DHT22;2107;52.306;10.484;2023-04-06T08:28:41;8.20;76.30
4187;DHT22;2107;52.306;10.484;2023-04-06T08:31:08;7.60;74.30
4187;DHT22;2107;52.306;10.484;2023-04-06T08:33:36;8.10;76.00
4187;DHT22;2107;52.306;10.484;2023-04-06T08:36:12;8.20;75.30
4187;DHT22;2107;52.306;10.484;2023-04-06T08:38:39;8.30;73.20
4187;DHT22;2107;52.306;10.484;2023-04-06T08:41:08;8.40;72.90
4187;DHT22;2107;52.306;10.484;2023-04-06T08:43:41;8.70;73.50
4187;DHT22;2107;52.306;10.484;2023-04-06T08:46:10;8.90;72.00
4187;DHT22;2107;52.306;10.484;2023-04-06T08:48:40;8.60;69.70
4187;DHT22;2107;52.306;10.484;2023-04-06T08:51:08;8.80;69.10
4187;DHT22;2107;52.306;10.484;2023-04-06T08:53:35;8.80;71.80
4187;DHT22;2107;52.306;10.484;2023-04-06T08:56:03;8.70;69.70
4187;DHT22;2107;52.306;10.484;2023-04-06T08:58:33;8.50;70.20
4187;DHT22;2107;52.306;10.484;2023-04-06T09:01:01;8.60;68.80
4187;DHT22;2107;52.306;10.484;2023-04-06T09:03:29;8.60;70.20
4187;DHT22;2107;52.306;10.484;2023-04-06T09:05:58;8.90;69.40
4187;DHT22;2107;52.306;10.484;2023-04-06T09:08:25;8.90;68.90
4187;DHT22;2107;52.306;10.484;2023-04-06T09:10:53;8.60;68.10
4187;DHT22;2107;52.306;10.484;2023-04-06T09:13:20;8.90;69.30
4187;DHT22;2107;52.306;10.484;2023-04-06T09:15:57;9.30;68.70
4187;DHT22;2107;52.306;10.484;2023-04-06T09:18:28;9.60;67.40
4187;DHT22;2107;52.306;10.484;2023-04-06T09:21:01;9.70;68.30
4187;DHT22;2107;52.306;10.484;2023-04-06T09:23:28;9.40;66.30
4187;DHT22;2107;52.306;10.484;2023-04-06T09:26:06;9.90;66.70
4187;DHT22;2107;52.306;10.484;2023-04-06T09:28:48;9.90;63.60
4187;DHT22;2107;52.306;10.484;2023-04-06T09:31:16;10.20;63.30
4187;DHT22;2107;52.306;10.484;2023-04-06T09:33:45;10.20;62.00
4187;DHT22;2107;52.306;10.484;2023-04-06T09:36:14;10.00;62.10
4187;DHT22;2107;52.306;10.484;2023-04-06T09:38:52;10.30;63.40
4187;DHT22;2107;52.306;10.484;2023-04-06T09:41:23;10.60;59.20
4187;DHT22;2107;52.306;10.484;2023-04-06T09:43:51;10.20;61.90
4187;DHT22;2107;52.306;10.484;2023-04-06T09:46:21;10.10;61.10
4187;DHT22;2107;52.306;10.484;2023-04-06T09:48:49;10.50;63.20
4187;DHT22;2107;52.306;10.484;2023-04-06T09:51:19;10.70;62.10
4187;DHT22;2107;52.306;10.484;2023-04-06T09:53:51;10.70;58.80
4187;DHT22;2107;52.306;10.484;2023-04-06T09:56:22;10.60;58.40
4187;DHT22;2107;52.306;10.484;2023-04-06T09:58:53;10.30;58.30
4187;DHT22;2107;52.306;10.484;2023-04-06T10:01:21;10.30;61.20
4187;DHT22;2107;52.306;10.484;2023-04-06T10:03:55;10.40;62.30
4187;DHT22;2107;52.306;10.484;2023-04-06T10:06:27;11.40;63.00
4187;DHT22;2107;52.306;10.484;2023-04-06T10:08:56;11.70;58.40
4187;DHT22;2107;52.306;10.484;2023-04-06T10:11:24;11.50;56.70
4187;DHT22;2107;52.306;10.484;2023-04-06T10:13:51;11.60;57.20
4187;DHT22;2107;52.306;10.484;2023-04-06T10:16:18;12.20;58.70
4187;DHT22;2107;52.306;10.484;2023-04-06T10:18:48;12.00;57.90
4187;DHT22;2107;52.306;10.484;2023-04-06T10:21:21;12.00;56.40
4187;DHT22;2107;52.306;10.484;2023-04-06T10:23:55;12.00;57.00
4187;DHT22;2107;52.306;10.484;2023-04-06T10:26:24;11.90;57.50
4187;DHT22;2107;52.306;10.484;2023-04-06T10:28:52;11.80;56.30
4187;DHT22;2107;52.306;10.484;2023-04-06T10:31:24;11.50;58.70
4187;DHT22;2107;52.306;10.484;2023-04-06T10:33:56;12.00;56.90
4187;DHT22;2107;52.306;10.484;2023-04-06T10:36:25;12.00;56.60
4187;DHT22;2107;52.306;10.484;2023-04-06T10:38:58;12.60;55.40
4187;DHT22;2107;52.306;10.484;2023-04-06T10:41:32;12.40;56.70
4187;DHT22;2107;52.306;10.484;2023-04-06T10:44:00;13.20;55.90
4187;DHT22;2107;52.306;10.484;2023-04-06T10:46:29;13.60;57.10
4187;DHT22;2107;52.306;10.484;2023-04-06T10:48:56;13.40;55.00
4187;DHT22;2107;52.306;10.484;2023-04-06T10:51:27;13.30;53.90
4187;DHT22;2107;52.306;10.484;2023-04-06T10:53:56;14.40;56.10
4187;DHT22;2107;52.306;10.484;2023-04-06T10:56:24;15.20;54.60
4187;DHT22;2107;52.306;10.484;2023-04-06T10:58:54;13.10;51.20
4187;DHT22;2107;52.306;10.484;2023-04-06T11:01:24;13.80;52.50
4187;DHT22;2107;52.306;10.484;2023-04-06T11:03:56;15.00;52.10
4187;DHT22;2107;52.306;10.484;2023-04-06T11:06:26;12.30;51.60
4187;DHT22;2107;52.306;10.484;2023-04-06T11:08:55;12.30;53.40
4187;DHT22;2107;52.306;10.484;2023-04-06T11:11:24;13.30;54.20
4187;DHT22;2107;52.306;10.484;2023-04-06T11:13:53;13.50;53.00
4187;DHT22;2107;52.306;10.484;2023-04-06T11:16:21;13.10;52.20
4187;DHT22;2107;52.306;10.484;2023-04-06T11:18:53;13.00;54.80
4187;DHT22;2107;52.306;10.484;2023-04-06T11:21:34;12.80;52.20
4187;DHT22;2107;52.306;10.484;2023-04-06T11:24:06;13.10;52.50
4187;DHT22;2107;52.306;10.484;2023-04-06T11:26:41;13.70;52.50
4187;DHT22;2107;52.306;10.484;2023-04-06T11:29:09;13.50;51.40
4187;DHT22;2107;52.306;10.484;2023-04-06T11:31:45;13.10;52.10
4187;DHT22;2107;52.306;10.484;2023-04-06T11:34:13;12.90;51.10
4187;DHT22;2107;52.306;10.484;2023-04-06T11:36:43;13.70;50.90
4187;DHT22;2107;52.306;10.484;2023-04-06T11:39:11;13.00;51.40
4187;DHT22;2107;52.306;10.484;2023-04-06T11:41:39;12.20;49.90
4187;DHT22;2107;52.306;10.484;2023-04-06T11:44:06;12.00;50.50
4187;DHT22;2107;52.306;10.484;2023-04-06T11:46:33;13.30;52.90
4187;DHT22;2107;52.306;10.484;2023-04-06T11:49:01;13.40;50.90
4187;DHT22;2107;52.306;10.484;2023-04-06T11:51:28;12.50;50.80
4187;DHT22;2107;52.306;10.484;2023-04-06T11:53:55;12.80;50.00
4187;DHT22;2107;52.306;10.484;2023-04-06T11:56:24;13.10;49.40
4187;DHT22;2107;52.306;10.484;2023-04-06T11:58:54;14.00;51.50
4187;DHT22;2107;52.306;10.484;2023-04-06T12:01:21;13.20;49.00
4187;DHT22;2107;52.306;10.484;2023-04-06T12:03:48;14.30;49.10
4187;DHT22;2107;52.306;10.484;2023-04-06T12:06:15;13.20;48.20
4187;DHT22;2107;52.306;10.484;2023-04-06T12:08:42;13.10;49.30
4187;DHT22;2107;52.306;10.484;2023-04-06T12:11:10;13.30;48.90
4187;DHT22;2107;52.306;10.484;2023-04-06T12:13:37;13.60;49.10
4187;DHT22;2107;52.306;10.484;2023-04-06T12:16:06;14.10;48.70
4187;DHT22;2107;52.306;10.484;2023-04-06T12:18:33;13.40;48.00
4187;DHT22;2107;52.306;10.484;2023-04-06T12:21:00;13.80;48.50
4187;DHT22;2107;52.306;10.484;2023-04-06T12:23:27;13.70;47.70
4187;DHT22;2107;52.306;10.484;2023-04-06T12:25:54;14.40;48.70
4187;DHT22;2107;52.306;10.484;2023-04-06T12:28:21;13.90;47.80
4187;DHT22;2107;52.306;10.484;2023-04-06T12:30:52;13.60;47.10
4187;DHT22;2107;52.306;10.484;2023-04-06T12:33:22;14.30;49.60
4187;DHT22;2107;52.306;10.484;2023-04-06T12:35:49;15.40;47.90
4187;DHT22;2107;52.306;10.484;2023-04-06T12:38:16;15.20;47.80
4187;DHT22;2107;52.306;10.484;2023-04-06T12:40:43;15.30;46.60
4187;DHT22;2107;52.306;10.484;2023-04-06T12:43:10;15.40;46.40
4187;DHT22;2107;52.306;10.484;2023-04-06T12:45:38;16.00;44.90
4187;DHT22;2107;52.306;10.484;2023-04-06T12:48:06;16.10;44.10
4187;DHT22;2107;52.306;10.484;2023-04-06T12:50:34;15.60;43.50
4187;DHT22;2107;52.306;10.484;2023-04-06T12:53:01;14.20;45.00
4187;DHT22;2107;52.306;10.484;2023-04-06T12:55:30;12.90;44.00
4187;DHT22;2107;52.306;10.484;2023-04-06T12:57:59;13.10;45.90
4187;DHT22;2107;52.306;10.484;2023-04-06T13:00:27;13.20;45.00
4187;DHT22;2107;52.306;10.484;2023-04-06T13:02:54;13.40;46.40
4187;DHT22;2107;52.306;10.484;2023-04-06T13:05:21;13.60;46.40
4187;DHT22;2107;52.306;10.484;2023-04-06T13:07:49;13.60;45.50
4187;DHT22;2107;52.306;10.484;2023-04-06T13:10:16;13.10;44.90
4187;DHT22;2107;52.306;10.484;2023-04-06T13:12:43;14.20;45.30
4187;DHT22;2107;52.306;10.484;2023-04-06T13:15:10;15.20;45.40
4187;DHT22;2107;52.306;10.484;2023-04-06T13:17:38;16.50;43.20
4187;DHT22;2107;52.306;10.484;2023-04-06T13:20:06;16.50;42.70
4187;DHT22;2107;52.306;10.484;2023-04-06T13:22:33;16.00;40.90
4187;DHT22;2107;52.306;10.484;2023-04-06T13:25:01;17.30;41.60
4187;DHT22;2107;52.306;10.484;2023-04-06T13:27:28;15.50;39.60
4187;DHT22;2107;52.306;10.484;2023-04-06T13:29:59;16.00;40.70
4187;DHT22;2107;52.306;10.484;2023-04-06T13:32:26;16.00;40.40
4187;DHT22;2107;52.306;10.484;2023-04-06T13:34:54;17.50;39.20
4187;DHT22;2107;52.306;10.484;2023-04-06T13:37:21;19.20;38.00
4187;DHT22;2107;52.306;10.484;2023-04-06T13:39:48;20.50;35.50
4187;DHT22;2107;52.306;10.484;2023-04-06T13:42:17;18.30;35.20
4187;DHT22;2107;52.306;10.484;2023-04-06T13:44:44;15.80;36.70
4187;DHT22;2107;52.306;10.484;2023-04-06T13:47:13;17.40;38.40
4187;DHT22;2107;52.306;10.484;2023-04-06T13:49:41;16.30;36.80
4187;DHT22;2107;52.306;10.484;2023-04-06T13:52:08;18.10;35.70
4187;DHT22;2107;52.306;10.484;2023-04-06T13:54:38;16.40;35.00
4187;DHT22;2107;52.306;10.484;2023-04-06T13:57:09;15.20;35.50
4187;DHT22;2107;52.306;10.484;2023-04-06T13:59:43;16.30;37.50
4187;DHT22;2107;52.306;10.484;2023-04-06T14:02:10;19.90;36.70
4187;DHT22;2107;52.306;10.484;2023-04-06T14:04:37;19.30;32.80
4187;DHT22;2107;52.306;10.484;2023-04-06T14:07:04;19.70;33.10
4187;DHT22;2107;52.306;10.484;2023-04-06T14:09:32;20.30;32.80
4187;DHT22;2107;52.306;10.484;2023-04-06T14:12:00;16.60;30.20
4187;DHT22;2107;52.306;10.484;2023-04-06T14:14:27;17.10;33.60
4187;DHT22;2107;52.306;10.484;2023-04-06T14:16:55;16.70;31.70
4187;DHT22;2107;52.306;10.484;2023-04-06T14:19:22;17.60;31.40
4187;DHT22;2107;52.306;10.484;2023-04-06T14:21:49;20.70;32.00
4187;DHT22;2107;52.306;10.484;2023-04-06T14:24:18;20.50;28.50
4187;DHT22;2107;52.306;10.484;2023-04-06T14:26:45;19.50;29.60
4187;DHT22;2107;52.306;10.484;2023-04-06T14:29:12;19.30;29.80
4187;DHT22;2107;52.306;10.484;2023-04-06T14:31:39;20.30;31.00
4187;DHT22;2107;52.306;10.484;2023-04-06T14:34:07;19.50;28.10
4187;DHT22;2107;52.306;10.484;2023-04-06T14:36:34;20.80;30.00
4187;DHT22;2107;52.306;10.484;2023-04-06T14:39:03;20.00;29.10
4187;DHT22;2107;52.306;10.484;2023-04-06T14:41:32;19.70;28.80
4187;DHT22;2107;52.306;10.484;2023-04-06T14:43:59;19.00;29.60
4187;DHT22;2107;52.306;10.484;2023-04-06T14:46:27;16.20;29.00
4187;DHT22;2107;52.306;10.484;2023-04-06T14:48:54;15.20;31.50
4187;DHT22;2107;52.306;10.484;2023-04-06T14:51:24;15.80;31.80
4187;DHT22;2107;52.306;10.484;2023-04-06T14:53:51;17.60;30.00
4187;DHT22;2107;52.306;10.484;2023-04-06T14:56:21;18.00;28.50
4187;DHT22;2107;52.306;10.484;2023-04-06T14:58:48;19.90;27.60
4187;DHT22;2107;52.306;10.484;2023-04-06T15:01:16;19.60;27.90
4187;DHT22;2107;52.306;10.484;2023-04-06T15:03:43;18.60;28.10
4187;DHT22;2107;52.306;10.484;2023-04-06T15:06:12;16.20;29.00
4187;DHT22;2107;52.306;10.484;2023-04-06T15:08:42;17.90;30.30
4187;DHT22;2107;52.306;10.484;2023-04-06T15:11:09;17.70;29.80
4187;DHT22;2107;52.306;10.484;2023-04-06T15:13:36;17.70;29.30
4187;DHT22;2107;52.306;10.484;2023-04-06T15:16:04;16.50;28.80
4187;DHT22;2107;52.306;10.484;2023-04-06T15:18:31;16.80;30.30
4187;DHT22;2107;52.306;10.484;2023-04-06T15:20:58;15.80;30.80
4187;DHT22;2107;52.306;10.484;2023-04-06T15:23:24;14.70;30.90
4187;DHT22;2107;52.306;10.484;2023-04-06T15:25:56;14.90;32.90
4187;DHT22;2107;52.306;10.484;2023-04-06T15:28:23;14.30;33.00
4187;DHT22;2107;52.306;10.484;2023-04-06T15:30:50;14.60;32.60
4187;DHT22;2107;52.306;10.484;2023-04-06T15:33:19;16.20;32.80
4187;DHT22;2107;52.306;10.484;2023-04-06T15:35:46;14.80;31.60
4187;DHT22;2107;52.306;10.484;2023-04-06T15:38:13;14.90;31.90
4187;DHT22;2107;52.306;10.484;2023-04-06T15:40:43;16.20;33.00
4187;DHT22;2107;52.306;10.484;2023-04-06T15:43:12;16.20;31.80
4187;DHT22;2107;52.306;10.484;2023-04-06T15:45:39;14.50;32.90
4187;DHT22;2107;52.306;10.484;2023-04-06T15:48:06;13.70;34.30
4187;DHT22;2107;52.306;10.484;2023-04-06T15:50:34;14.00;34.80
4187;DHT22;2107;52.306;10.484;2023-04-06T15:53:01;14.00;35.80